Terminal Aerodrome Forecast
Issued by NWS Cleveland, OH

Home | Current Version | Previous Version | Text Only | Print | Product List | Glossary On
Versions: 1 2 3 4 5 6 7 8 9 10 11 12 13 14 15 16 17 18
000
FTUS41 KCLE 171127
TAFCAK
TAF
KCAK 171127Z 1712/1812 18003KT 6SM BR BKN250
      TEMPO 1712/1714 4SM BR
     FM171600 18005KT P6SM SCT025 BKN200
     FM172000 20007KT P6SM VCSH BKN030 OVC120
     FM180300 22006KT 5SM BR VCSH OVC015
     FM180900 22007KT 4SM BR OVC008=

USA.gov is the U.S. government's official web portal to all federal, state and local government web resources and services.